Shaw, Missouri
Current Conditions -  °F | °C
As of 5:54 PM on Friday 28 Nov 2014 (Local Time) from KCOU Reporting Station
Clear Clear  
Wind Chill: 11°   Ceiling: Unl
Heat Index: 11°   Visibility: 10mi
Dew Point:   Wind: 13mph
Humidity: 52%   Direction: 160°SSE
Pressure: 29.85"   Gusts: NA
Location:  39.0235°N, 92.2896°W
Report Text: KCOU 282354Z 16011KT 10SM CLR 11/01 A2985 RMK AO2 SLP113 T01060011 10150 20106 56009
Loading
Personal Weather Stations






























Interactive Weather Map New forecast layout! Learn more

10-Day Weather Forecast

Advertisements
Track Severe Weather on mobile